sensor_id;sensor_type;location;lat;lon;timestamp;temperature;humidity
52725;DHT22;38621;52.830;6.914;2024-01-30T00:01:16;5.40;99.90
52725;DHT22;38621;52.830;6.914;2024-01-30T00:03:41;5.40;99.90
52725;DHT22;38621;52.830;6.914;2024-01-30T00:06:08;5.30;99.90
52725;DHT22;38621;52.830;6.914;2024-01-30T00:08:34;5.30;99.90
52725;DHT22;38621;52.830;6.914;2024-01-30T00:11:00;5.30;99.90
52725;DHT22;38621;52.830;6.914;2024-01-30T00:13:26;5.30;99.90
52725;DHT22;38621;52.830;6.914;2024-01-30T00:15:52;5.30;99.90
52725;DHT22;38621;52.830;6.914;2024-01-30T00:18:18;5.30;99.90
52725;DHT22;38621;52.830;6.914;2024-01-30T00:20:45;5.30;99.90
52725;DHT22;38621;52.830;6.914;2024-01-30T00:23:10;5.40;99.90
52725;DHT22;38621;52.830;6.914;2024-01-30T00:25:36;5.60;99.90
52725;DHT22;38621;52.830;6.914;2024-01-30T00:28:02;5.80;99.90
52725;DHT22;38621;52.830;6.914;2024-01-30T00:30:27;5.80;99.90
52725;DHT22;38621;52.830;6.914;2024-01-30T00:32:54;5.80;99.90
52725;DHT22;38621;52.830;6.914;2024-01-30T00:35:19;5.70;99.90
52725;DHT22;38621;52.830;6.914;2024-01-30T00:37:47;5.70;99.90
52725;DHT22;38621;52.830;6.914;2024-01-30T00:40:13;5.70;99.90
52725;DHT22;38621;52.830;6.914;2024-01-30T00:42:44;5.70;99.90
52725;DHT22;38621;52.830;6.914;2024-01-30T00:45:16;5.80;99.90
52725;DHT22;38621;52.830;6.914;2024-01-30T00:47:42;6.00;99.90
52725;DHT22;38621;52.830;6.914;2024-01-30T00:50:08;6.00;99.90
52725;DHT22;38621;52.830;6.914;2024-01-30T00:52:34;6.00;99.90
52725;DHT22;38621;52.830;6.914;2024-01-30T00:55:01;6.00;99.90
52725;DHT22;38621;52.830;6.914;2024-01-30T00:57:26;5.90;99.90
52725;DHT22;38621;52.830;6.914;2024-01-30T00:59:52;5.80;99.90
52725;DHT22;38621;52.830;6.914;2024-01-30T01:02:18;5.80;99.90
52725;DHT22;38621;52.830;6.914;2024-01-30T01:04:44;5.70;99.90
52725;DHT22;38621;52.830;6.914;2024-01-30T01:07:11;5.60;99.90
52725;DHT22;38621;52.830;6.914;2024-01-30T01:09:36;5.50;99.90
52725;DHT22;38621;52.830;6.914;2024-01-30T01:12:03;5.40;99.90
52725;DHT22;38621;52.830;6.914;2024-01-30T01:14:28;5.30;99.90
52725;DHT22;38621;52.830;6.914;2024-01-30T01:16:54;5.20;99.90
52725;DHT22;38621;52.830;6.914;2024-01-30T01:19:20;5.20;99.90
52725;DHT22;38621;52.830;6.914;2024-01-30T01:21:45;5.20;99.90
52725;DHT22;38621;52.830;6.914;2024-01-30T01:24:11;5.20;99.90
52725;DHT22;38621;52.830;6.914;2024-01-30T01:26:37;5.10;99.90
52725;DHT22;38621;52.830;6.914;2024-01-30T01:29:02;5.10;99.90
52725;DHT22;38621;52.830;6.914;2024-01-30T01:31:36;5.10;99.90
52725;DHT22;38621;52.830;6.914;2024-01-30T01:34:05;5.10;99.90
52725;DHT22;38621;52.830;6.914;2024-01-30T01:36:31;5.30;99.90
52725;DHT22;38621;52.830;6.914;2024-01-30T01:38:57;5.00;99.90
52725;DHT22;38621;52.830;6.914;2024-01-30T01:41:22;5.10;99.90
52725;DHT22;38621;52.830;6.914;2024-01-30T01:43:48;5.30;99.90
52725;DHT22;38621;52.830;6.914;2024-01-30T01:46:14;5.10;99.90
52725;DHT22;38621;52.830;6.914;2024-01-30T01:48:41;5.00;99.90
52725;DHT22;38621;52.830;6.914;2024-01-30T01:51:09;5.00;99.90
52725;DHT22;38621;52.830;6.914;2024-01-30T01:53:35;5.10;99.90
52725;DHT22;38621;52.830;6.914;2024-01-30T01:56:00;5.10;99.90
52725;DHT22;38621;52.830;6.914;2024-01-30T01:58:27;5.20;99.90
52725;DHT22;38621;52.830;6.914;2024-01-30T02:00:54;5.20;99.90
52725;DHT22;38621;52.830;6.914;2024-01-30T02:03:21;5.30;99.90
52725;DHT22;38621;52.830;6.914;2024-01-30T02:05:47;5.40;99.90
52725;DHT22;38621;52.830;6.914;2024-01-30T02:08:13;5.50;99.90
52725;DHT22;38621;52.830;6.914;2024-01-30T02:10:39;5.80;99.90
52725;DHT22;38621;52.830;6.914;2024-01-30T02:13:04;5.90;99.90
52725;DHT22;38621;52.830;6.914;2024-01-30T02:15:30;6.10;99.90
52725;DHT22;38621;52.830;6.914;2024-01-30T02:17:56;6.20;99.90
52725;DHT22;38621;52.830;6.914;2024-01-30T02:20:23;6.20;99.90
52725;DHT22;38621;52.830;6.914;2024-01-30T02:22:52;6.30;99.90
52725;DHT22;38621;52.830;6.914;2024-01-30T02:25:19;6.40;99.90
52725;DHT22;38621;52.830;6.914;2024-01-30T02:27:45;6.50;99.90
52725;DHT22;38621;52.830;6.914;2024-01-30T02:30:11;6.50;99.90
52725;DHT22;38621;52.830;6.914;2024-01-30T02:32:37;6.40;99.90
52725;DHT22;38621;52.830;6.914;2024-01-30T02:35:03;6.40;99.90
52725;DHT22;38621;52.830;6.914;2024-01-30T02:37:29;6.20;99.90
52725;DHT22;38621;52.830;6.914;2024-01-30T02:39:54;6.10;99.90
52725;DHT22;38621;52.830;6.914;2024-01-30T02:42:20;5.90;99.90
52725;DHT22;38621;52.830;6.914;2024-01-30T02:44:46;5.70;99.90
52725;DHT22;38621;52.830;6.914;2024-01-30T02:47:11;5.50;99.90
52725;DHT22;38621;52.830;6.914;2024-01-30T02:49:37;5.40;99.90
52725;DHT22;38621;52.830;6.914;2024-01-30T02:52:03;5.10;99.90
52725;DHT22;38621;52.830;6.914;2024-01-30T02:54:29;5.30;99.90
52725;DHT22;38621;52.830;6.914;2024-01-30T02:56:56;5.40;99.90
52725;DHT22;38621;52.830;6.914;2024-01-30T02:59:21;5.50;99.90
52725;DHT22;38621;52.830;6.914;2024-01-30T03:01:47;5.50;99.90
52725;DHT22;38621;52.830;6.914;2024-01-30T03:04:13;5.60;99.90
52725;DHT22;38621;52.830;6.914;2024-01-30T03:06:39;5.80;99.90
52725;DHT22;38621;52.830;6.914;2024-01-30T03:09:09;6.00;99.90
52725;DHT22;38621;52.830;6.914;2024-01-30T03:11:36;6.00;99.90
52725;DHT22;38621;52.830;6.914;2024-01-30T03:14:01;6.20;99.90
52725;DHT22;38621;52.830;6.914;2024-01-30T03:16:27;6.30;99.90
52725;DHT22;38621;52.830;6.914;2024-01-30T03:18:53;6.40;99.90
52725;DHT22;38621;52.830;6.914;2024-01-30T03:21:18;6.50;99.90
52725;DHT22;38621;52.830;6.914;2024-01-30T03:23:44;6.50;99.90
52725;DHT22;38621;52.830;6.914;2024-01-30T03:26:10;6.30;99.90
52725;DHT22;38621;52.830;6.914;2024-01-30T03:28:36;6.20;99.90
52725;DHT22;38621;52.830;6.914;2024-01-30T03:31:02;6.30;99.90
52725;DHT22;38621;52.830;6.914;2024-01-30T03:33:27;6.40;99.90
52725;DHT22;38621;52.830;6.914;2024-01-30T03:35:53;6.40;99.90
52725;DHT22;38621;52.830;6.914;2024-01-30T03:38:19;6.50;99.90
52725;DHT22;38621;52.830;6.914;2024-01-30T03:40:45;6.60;99.90
52725;DHT22;38621;52.830;6.914;2024-01-30T03:43:11;6.60;99.90
52725;DHT22;38621;52.830;6.914;2024-01-30T03:45:36;6.60;99.90
52725;DHT22;38621;52.830;6.914;2024-01-30T03:48:02;6.70;99.90
52725;DHT22;38621;52.830;6.914;2024-01-30T03:50:28;6.70;99.90
52725;DHT22;38621;52.830;6.914;2024-01-30T03:52:54;6.70;99.90
52725;DHT22;38621;52.830;6.914;2024-01-30T03:55:19;6.70;99.90
52725;DHT22;38621;52.830;6.914;2024-01-30T03:57:45;6.70;99.90
52725;DHT22;38621;52.830;6.914;2024-01-30T04:00:11;6.70;99.90
52725;DHT22;38621;52.830;6.914;2024-01-30T04:02:37;6.70;99.90
52725;DHT22;38621;52.830;6.914;2024-01-30T04:05:02;6.70;99.90
52725;DHT22;38621;52.830;6.914;2024-01-30T04:07:28;6.70;99.90
52725;DHT22;38621;52.830;6.914;2024-01-30T04:09:54;6.70;99.90
52725;DHT22;38621;52.830;6.914;2024-01-30T04:12:20;6.80;99.90
52725;DHT22;38621;52.830;6.914;2024-01-30T04:14:45;6.80;99.90
52725;DHT22;38621;52.830;6.914;2024-01-30T04:17:11;6.80;99.90
52725;DHT22;38621;52.830;6.914;2024-01-30T04:19:38;6.90;99.90
52725;DHT22;38621;52.830;6.914;2024-01-30T04:22:04;6.80;99.90
52725;DHT22;38621;52.830;6.914;2024-01-30T04:24:30;6.80;99.90
52725;DHT22;38621;52.830;6.914;2024-01-30T04:26:55;6.90;99.90
52725;DHT22;38621;52.830;6.914;2024-01-30T04:29:21;6.90;99.90
52725;DHT22;38621;52.830;6.914;2024-01-30T04:31:48;6.90;99.90
52725;DHT22;38621;52.830;6.914;2024-01-30T04:34:13;6.90;99.90
52725;DHT22;38621;52.830;6.914;2024-01-30T04:36:39;7.00;99.90
52725;DHT22;38621;52.830;6.914;2024-01-30T04:39:05;6.90;99.90
52725;DHT22;38621;52.830;6.914;2024-01-30T04:41:30;7.00;99.90
52725;DHT22;38621;52.830;6.914;2024-01-30T04:43:57;7.00;99.90
52725;DHT22;38621;52.830;6.914;2024-01-30T04:46:23;7.00;99.90
52725;DHT22;38621;52.830;6.914;2024-01-30T04:48:49;7.10;99.90
52725;DHT22;38621;52.830;6.914;2024-01-30T04:51:15;7.20;99.90
52725;DHT22;38621;52.830;6.914;2024-01-30T04:53:40;7.20;99.90
52725;DHT22;38621;52.830;6.914;2024-01-30T04:56:06;7.20;99.90
52725;DHT22;38621;52.830;6.914;2024-01-30T04:58:32;7.30;99.90
52725;DHT22;38621;52.830;6.914;2024-01-30T05:00:57;7.30;99.90
52725;DHT22;38621;52.830;6.914;2024-01-30T05:03:23;7.30;99.90
52725;DHT22;38621;52.830;6.914;2024-01-30T05:05:49;7.30;99.90
52725;DHT22;38621;52.830;6.914;2024-01-30T05:08:15;7.30;99.90
52725;DHT22;38621;52.830;6.914;2024-01-30T05:10:41;7.30;99.90
52725;DHT22;38621;52.830;6.914;2024-01-30T05:13:06;7.40;99.90
52725;DHT22;38621;52.830;6.914;2024-01-30T05:15:32;7.40;99.90
52725;DHT22;38621;52.830;6.914;2024-01-30T05:17:58;7.40;99.90
52725;DHT22;38621;52.830;6.914;2024-01-30T05:20:23;7.90;99.90
52725;DHT22;38621;52.830;6.914;2024-01-30T05:22:49;7.30;99.90
52725;DHT22;38621;52.830;6.914;2024-01-30T05:25:15;7.40;99.90
52725;DHT22;38621;52.830;6.914;2024-01-30T05:27:41;7.40;99.90
52725;DHT22;38621;52.830;6.914;2024-01-30T05:30:07;7.40;99.90
52725;DHT22;38621;52.830;6.914;2024-01-30T05:32:33;7.40;99.90
52725;DHT22;38621;52.830;6.914;2024-01-30T05:34:59;7.30;99.90
52725;DHT22;38621;52.830;6.914;2024-01-30T05:37:24;7.20;99.90
52725;DHT22;38621;52.830;6.914;2024-01-30T05:39:50;7.20;99.90
52725;DHT22;38621;52.830;6.914;2024-01-30T05:42:16;7.20;99.90
52725;DHT22;38621;52.830;6.914;2024-01-30T05:44:42;7.20;99.90
52725;DHT22;38621;52.830;6.914;2024-01-30T05:47:08;7.20;99.90
52725;DHT22;38621;52.830;6.914;2024-01-30T05:49:34;7.30;99.90
52725;DHT22;38621;52.830;6.914;2024-01-30T05:52:02;7.30;99.90
52725;DHT22;38621;52.830;6.914;2024-01-30T05:54:27;7.20;99.90
52725;DHT22;38621;52.830;6.914;2024-01-30T05:56:53;7.30;99.90
52725;DHT22;38621;52.830;6.914;2024-01-30T05:59:19;7.30;99.90
52725;DHT22;38621;52.830;6.914;2024-01-30T06:01:48;7.30;99.90
52725;DHT22;38621;52.830;6.914;2024-01-30T06:04:14;7.30;99.90
52725;DHT22;38621;52.830;6.914;2024-01-30T06:06:40;7.30;99.90
52725;DHT22;38621;52.830;6.914;2024-01-30T06:09:06;7.50;99.90
52725;DHT22;38621;52.830;6.914;2024-01-30T06:11:34;7.40;99.90
52725;DHT22;38621;52.830;6.914;2024-01-30T06:14:00;7.50;99.90
52725;DHT22;38621;52.830;6.914;2024-01-30T06:16:26;7.50;99.90
52725;DHT22;38621;52.830;6.914;2024-01-30T06:18:55;7.50;99.90
52725;DHT22;38621;52.830;6.914;2024-01-30T06:21:21;7.50;99.90
52725;DHT22;38621;52.830;6.914;2024-01-30T06:23:47;7.60;99.90
52725;DHT22;38621;52.830;6.914;2024-01-30T06:26:13;7.60;99.90
52725;DHT22;38621;52.830;6.914;2024-01-30T06:28:38;7.70;99.90
52725;DHT22;38621;52.830;6.914;2024-01-30T06:31:04;7.70;99.90
52725;DHT22;38621;52.830;6.914;2024-01-30T06:33:30;7.80;99.90
52725;DHT22;38621;52.830;6.914;2024-01-30T06:35:55;7.80;99.90
52725;DHT22;38621;52.830;6.914;2024-01-30T06:38:21;7.90;99.90
52725;DHT22;38621;52.830;6.914;2024-01-30T06:40:47;7.90;99.90
52725;DHT22;38621;52.830;6.914;2024-01-30T06:43:12;8.00;99.90
52725;DHT22;38621;52.830;6.914;2024-01-30T06:45:38;8.00;99.90
52725;DHT22;38621;52.830;6.914;2024-01-30T06:48:04;8.00;99.90
52725;DHT22;38621;52.830;6.914;2024-01-30T06:50:30;8.00;99.90
52725;DHT22;38621;52.830;6.914;2024-01-30T06:52:55;8.10;99.90
52725;DHT22;38621;52.830;6.914;2024-01-30T06:55:21;8.10;99.90
52725;DHT22;38621;52.830;6.914;2024-01-30T06:57:47;8.10;99.90
52725;DHT22;38621;52.830;6.914;2024-01-30T07:00:13;8.10;99.90
52725;DHT22;38621;52.830;6.914;2024-01-30T07:02:39;8.20;99.90
52725;DHT22;38621;52.830;6.914;2024-01-30T07:05:05;8.20;99.90
52725;DHT22;38621;52.830;6.914;2024-01-30T07:07:31;8.20;99.90
52725;DHT22;38621;52.830;6.914;2024-01-30T07:09:56;8.10;99.90
52725;DHT22;38621;52.830;6.914;2024-01-30T07:12:25;8.10;99.90
52725;DHT22;38621;52.830;6.914;2024-01-30T07:14:51;8.10;99.90
52725;DHT22;38621;52.830;6.914;2024-01-30T07:17:17;7.60;99.90
52725;DHT22;38621;52.830;6.914;2024-01-30T07:19:43;8.10;99.90
52725;DHT22;38621;52.830;6.914;2024-01-30T07:22:08;8.10;99.90
52725;DHT22;38621;52.830;6.914;2024-01-30T07:24:34;8.10;99.90
52725;DHT22;38621;52.830;6.914;2024-01-30T07:27:00;8.10;99.90
52725;DHT22;38621;52.830;6.914;2024-01-30T07:29:26;8.10;99.90
52725;DHT22;38621;52.830;6.914;2024-01-30T07:31:51;8.10;99.90
52725;DHT22;38621;52.830;6.914;2024-01-30T07:34:17;8.10;99.90
52725;DHT22;38621;52.830;6.914;2024-01-30T07:36:43;8.20;99.90
52725;DHT22;38621;52.830;6.914;2024-01-30T07:39:09;8.20;99.90
52725;DHT22;38621;52.830;6.914;2024-01-30T07:41:35;8.20;99.90
52725;DHT22;38621;52.830;6.914;2024-01-30T07:44:02;8.30;99.90
52725;DHT22;38621;52.830;6.914;2024-01-30T07:46:28;8.20;99.90
52725;DHT22;38621;52.830;6.914;2024-01-30T07:48:53;8.20;99.90
52725;DHT22;38621;52.830;6.914;2024-01-30T07:51:19;8.30;99.90
52725;DHT22;38621;52.830;6.914;2024-01-30T07:53:54;8.30;99.90
52725;DHT22;38621;52.830;6.914;2024-01-30T07:56:23;8.30;99.90
52725;DHT22;38621;52.830;6.914;2024-01-30T07:58:49;8.30;99.90
52725;DHT22;38621;52.830;6.914;2024-01-30T08:01:15;8.30;99.90
52725;DHT22;38621;52.830;6.914;2024-01-30T08:03:41;8.30;99.90
52725;DHT22;38621;52.830;6.914;2024-01-30T08:06:07;8.70;99.90
52725;DHT22;38621;52.830;6.914;2024-01-30T08:08:33;8.30;99.90
52725;DHT22;38621;52.830;6.914;2024-01-30T08:10:58;8.40;99.90
52725;DHT22;38621;52.830;6.914;2024-01-30T08:13:24;8.40;99.90
52725;DHT22;38621;52.830;6.914;2024-01-30T08:15:50;8.30;99.90
52725;DHT22;38621;52.830;6.914;2024-01-30T08:18:15;8.40;99.90
52725;DHT22;38621;52.830;6.914;2024-01-30T08:20:41;8.40;99.90
52725;DHT22;38621;52.830;6.914;2024-01-30T08:23:07;8.40;99.90
52725;DHT22;38621;52.830;6.914;2024-01-30T08:25:33;8.40;99.90
52725;DHT22;38621;52.830;6.914;2024-01-30T08:27:59;8.40;99.90
52725;DHT22;38621;52.830;6.914;2024-01-30T08:30:25;8.40;99.90
52725;DHT22;38621;52.830;6.914;2024-01-30T08:32:51;8.40;99.90
52725;DHT22;38621;52.830;6.914;2024-01-30T08:35:17;8.50;99.90
52725;DHT22;38621;52.830;6.914;2024-01-30T08:37:43;8.50;99.90
52725;DHT22;38621;52.830;6.914;2024-01-30T08:40:08;8.60;99.90
52725;DHT22;38621;52.830;6.914;2024-01-30T08:42:34;8.60;99.90
52725;DHT22;38621;52.830;6.914;2024-01-30T08:45:00;8.60;99.90
52725;DHT22;38621;52.830;6.914;2024-01-30T08:47:26;8.60;99.90
52725;DHT22;38621;52.830;6.914;2024-01-30T08:49:51;8.60;99.90
52725;DHT22;38621;52.830;6.914;2024-01-30T08:52:17;8.70;99.90
52725;DHT22;38621;52.830;6.914;2024-01-30T08:54:43;8.70;99.90
52725;DHT22;38621;52.830;6.914;2024-01-30T08:57:09;8.80;99.90
52725;DHT22;38621;52.830;6.914;2024-01-30T08:59:34;8.90;99.90
52725;DHT22;38621;52.830;6.914;2024-01-30T09:02:00;8.90;99.90
52725;DHT22;38621;52.830;6.914;2024-01-30T09:04:26;9.00;99.90
52725;DHT22;38621;52.830;6.914;2024-01-30T09:06:51;9.00;99.90
52725;DHT22;38621;52.830;6.914;2024-01-30T09:09:17;9.10;99.90
52725;DHT22;38621;52.830;6.914;2024-01-30T09:11:43;9.10;99.90
52725;DHT22;38621;52.830;6.914;2024-01-30T09:14:09;9.10;99.90
52725;DHT22;38621;52.830;6.914;2024-01-30T09:16:35;9.20;99.90
52725;DHT22;38621;52.830;6.914;2024-01-30T09:19:01;9.20;99.90
52725;DHT22;38621;52.830;6.914;2024-01-30T09:21:26;9.20;99.90
52725;DHT22;38621;52.830;6.914;2024-01-30T09:23:54;9.20;99.90
52725;DHT22;38621;52.830;6.914;2024-01-30T09:26:20;9.20;99.90
52725;DHT22;38621;52.830;6.914;2024-01-30T09:28:46;9.30;99.90
52725;DHT22;38621;52.830;6.914;2024-01-30T09:31:12;9.30;99.90
52725;DHT22;38621;52.830;6.914;2024-01-30T09:33:38;9.20;99.90
52725;DHT22;38621;52.830;6.914;2024-01-30T09:36:05;9.20;99.90
52725;DHT22;38621;52.830;6.914;2024-01-30T09:38:31;9.20;99.90
52725;DHT22;38621;52.830;6.914;2024-01-30T09:41:00;9.20;99.90
52725;DHT22;38621;52.830;6.914;2024-01-30T09:43:33;9.20;99.90
52725;DHT22;38621;52.830;6.914;2024-01-30T09:46:02;9.30;99.90
52725;DHT22;38621;52.830;6.914;2024-01-30T09:48:30;9.40;99.90
52725;DHT22;38621;52.830;6.914;2024-01-30T09:50:57;9.40;99.90
52725;DHT22;38621;52.830;6.914;2024-01-30T09:53:23;9.50;99.90
52725;DHT22;38621;52.830;6.914;2024-01-30T09:55:50;9.50;99.90
52725;DHT22;38621;52.830;6.914;2024-01-30T09:58:16;9.50;99.90
52725;DHT22;38621;52.830;6.914;2024-01-30T10:00:42;9.50;99.90
52725;DHT22;38621;52.830;6.914;2024-01-30T10:03:08;9.50;99.90
52725;DHT22;38621;52.830;6.914;2024-01-30T10:05:36;9.70;99.90
52725;DHT22;38621;52.830;6.914;2024-01-30T10:08:06;9.40;99.90
52725;DHT22;38621;52.830;6.914;2024-01-30T10:10:34;9.50;99.90
52725;DHT22;38621;52.830;6.914;2024-01-30T10:13:00;9.50;99.90
52725;DHT22;38621;52.830;6.914;2024-01-30T10:15:28;9.50;99.90
52725;DHT22;38621;52.830;6.914;2024-01-30T10:17:53;9.50;99.90
52725;DHT22;38621;52.830;6.914;2024-01-30T10:20:19;9.60;99.90
52725;DHT22;38621;52.830;6.914;2024-01-30T10:22:48;9.60;99.90
52725;DHT22;38621;52.830;6.914;2024-01-30T10:25:15;9.70;99.90
52725;DHT22;38621;52.830;6.914;2024-01-30T10:27:41;9.80;99.90
52725;DHT22;38621;52.830;6.914;2024-01-30T10:30:08;9.80;99.90
52725;DHT22;38621;52.830;6.914;2024-01-30T10:32:33;9.80;99.90
52725;DHT22;38621;52.830;6.914;2024-01-30T10:34:59;9.80;99.90
52725;DHT22;38621;52.830;6.914;2024-01-30T10:37:25;9.90;99.90
52725;DHT22;38621;52.830;6.914;2024-01-30T10:39:53;9.90;99.90
52725;DHT22;38621;52.830;6.914;2024-01-30T10:42:25;10.00;99.90
52725;DHT22;38621;52.830;6.914;2024-01-30T10:47:28;10.10;99.90
52725;DHT22;38621;52.830;6.914;2024-01-30T10:49:54;10.20;99.90
52725;DHT22;38621;52.830;6.914;2024-01-30T10:52:21;10.20;99.90
52725;DHT22;38621;52.830;6.914;2024-01-30T10:54:50;10.20;99.90
52725;DHT22;38621;52.830;6.914;2024-01-30T10:57:17;10.20;99.90
52725;DHT22;38621;52.830;6.914;2024-01-30T10:59:43;10.20;99.90
52725;DHT22;38621;52.830;6.914;2024-01-30T11:02:10;10.20;99.90
52725;DHT22;38621;52.830;6.914;2024-01-30T11:04:37;10.20;99.90
52725;DHT22;38621;52.830;6.914;2024-01-30T11:07:02;10.20;99.90
52725;DHT22;38621;52.830;6.914;2024-01-30T11:09:29;10.20;99.90
52725;DHT22;38621;52.830;6.914;2024-01-30T11:11:59;10.20;99.90
52725;DHT22;38621;52.830;6.914;2024-01-30T11:14:30;10.20;99.90
52725;DHT22;38621;52.830;6.914;2024-01-30T11:16:59;10.20;99.90
52725;DHT22;38621;52.830;6.914;2024-01-30T11:19:31;10.30;99.90
52725;DHT22;38621;52.830;6.914;2024-01-30T11:21:57;10.20;99.90
52725;DHT22;38621;52.830;6.914;2024-01-30T11:24:23;10.20;99.90
52725;DHT22;38621;52.830;6.914;2024-01-30T11:26:54;10.20;99.90
52725;DHT22;38621;52.830;6.914;2024-01-30T11:29:27;10.20;99.90
52725;DHT22;38621;52.830;6.914;2024-01-30T11:31:57;10.20;99.90
52725;DHT22;38621;52.830;6.914;2024-01-30T11:34:23;10.30;99.90
52725;DHT22;38621;52.830;6.914;2024-01-30T11:36:57;10.30;99.90
52725;DHT22;38621;52.830;6.914;2024-01-30T11:39:28;10.40;99.90
52725;DHT22;38621;52.830;6.914;2024-01-30T11:41:54;10.30;99.90
52725;DHT22;38621;52.830;6.914;2024-01-30T11:44:21;10.30;99.90
52725;DHT22;38621;52.830;6.914;2024-01-30T11:46:48;10.30;99.90
52725;DHT22;38621;52.830;6.914;2024-01-30T11:49:14;10.30;99.90
52725;DHT22;38621;52.830;6.914;2024-01-30T11:51:40;10.30;99.90
52725;DHT22;38621;52.830;6.914;2024-01-30T11:54:05;10.30;99.90
52725;DHT22;38621;52.830;6.914;2024-01-30T11:56:32;10.30;99.90
52725;DHT22;38621;52.830;6.914;2024-01-30T11:58:58;10.30;99.90
52725;DHT22;38621;52.830;6.914;2024-01-30T12:01:26;10.30;99.90
52725;DHT22;38621;52.830;6.914;2024-01-30T12:03:52;10.30;99.90
52725;DHT22;38621;52.830;6.914;2024-01-30T12:06:18;10.00;99.90
52725;DHT22;38621;52.830;6.914;2024-01-30T12:08:59;10.30;99.90
52725;DHT22;38621;52.830;6.914;2024-01-30T12:11:26;10.30;99.90
52725;DHT22;38621;52.830;6.914;2024-01-30T12:13:52;10.30;99.90
52725;DHT22;38621;52.830;6.914;2024-01-30T12:16:19;10.30;99.90
52725;DHT22;38621;52.830;6.914;2024-01-30T12:18:45;10.30;99.90
52725;DHT22;38621;52.830;6.914;2024-01-30T12:21:10;10.30;99.90
52725;DHT22;38621;52.830;6.914;2024-01-30T12:23:36;10.30;99.90
52725;DHT22;38621;52.830;6.914;2024-01-30T12:26:03;10.30;99.90
52725;DHT22;38621;52.830;6.914;2024-01-30T12:28:31;10.40;99.90
52725;DHT22;38621;52.830;6.914;2024-01-30T12:31:01;10.40;99.90
52725;DHT22;38621;52.830;6.914;2024-01-30T12:33:29;10.40;99.90
52725;DHT22;38621;52.830;6.914;2024-01-30T12:35:54;10.40;99.90
52725;DHT22;38621;52.830;6.914;2024-01-30T12:38:20;10.50;99.90
52725;DHT22;38621;52.830;6.914;2024-01-30T12:40:46;10.50;99.90
52725;DHT22;38621;52.830;6.914;2024-01-30T12:43:13;10.60;99.90
52725;DHT22;38621;52.830;6.914;2024-01-30T12:45:41;10.70;99.90
52725;DHT22;38621;52.830;6.914;2024-01-30T12:48:08;10.70;99.90
52725;DHT22;38621;52.830;6.914;2024-01-30T12:50:34;10.80;99.90
52725;DHT22;38621;52.830;6.914;2024-01-30T12:52:59;10.80;99.90
52725;DHT22;38621;52.830;6.914;2024-01-30T12:55:25;10.90;99.90
52725;DHT22;38621;52.830;6.914;2024-01-30T12:57:54;10.90;99.90
52725;DHT22;38621;52.830;6.914;2024-01-30T13:00:20;10.90;99.90
52725;DHT22;38621;52.830;6.914;2024-01-30T13:02:47;11.00;99.90
52725;DHT22;38621;52.830;6.914;2024-01-30T13:05:13;11.00;99.90
52725;DHT22;38621;52.830;6.914;2024-01-30T13:07:40;11.00;99.90
52725;DHT22;38621;52.830;6.914;2024-01-30T13:10:05;11.00;99.90
52725;DHT22;38621;52.830;6.914;2024-01-30T13:12:31;11.00;99.90
52725;DHT22;38621;52.830;6.914;2024-01-30T13:15:01;10.90;99.90
52725;DHT22;38621;52.830;6.914;2024-01-30T13:17:27;10.70;99.90
52725;DHT22;38621;52.830;6.914;2024-01-30T13:19:53;10.50;99.90
52725;DHT22;38621;52.830;6.914;2024-01-30T13:22:20;10.50;99.90
52725;DHT22;38621;52.830;6.914;2024-01-30T13:24:48;10.40;99.90
52725;DHT22;38621;52.830;6.914;2024-01-30T13:27:14;10.40;99.90
52725;DHT22;38621;52.830;6.914;2024-01-30T13:29:39;10.40;99.90
52725;DHT22;38621;52.830;6.914;2024-01-30T13:32:05;10.40;99.90
52725;DHT22;38621;52.830;6.914;2024-01-30T13:34:31;10.40;99.90
52725;DHT22;38621;52.830;6.914;2024-01-30T13:36:57;10.40;99.90
52725;DHT22;38621;52.830;6.914;2024-01-30T13:39:23;10.40;99.90
52725;DHT22;38621;52.830;6.914;2024-01-30T13:41:49;10.40;99.90
52725;DHT22;38621;52.830;6.914;2024-01-30T13:44:15;10.40;99.90
52725;DHT22;38621;52.830;6.914;2024-01-30T13:46:43;10.40;99.90
52725;DHT22;38621;52.830;6.914;2024-01-30T13:49:08;10.40;99.90
52725;DHT22;38621;52.830;6.914;2024-01-30T13:51:34;10.30;99.90
52725;DHT22;38621;52.830;6.914;2024-01-30T13:54:00;10.30;99.90
52725;DHT22;38621;52.830;6.914;2024-01-30T13:56:26;10.30;99.90
52725;DHT22;38621;52.830;6.914;2024-01-30T13:58:52;10.20;99.90
52725;DHT22;38621;52.830;6.914;2024-01-30T14:01:18;10.20;99.90
52725;DHT22;38621;52.830;6.914;2024-01-30T14:03:44;10.20;99.90
52725;DHT22;38621;52.830;6.914;2024-01-30T14:06:11;10.10;99.90
52725;DHT22;38621;52.830;6.914;2024-01-30T14:08:37;10.10;99.90
52725;DHT22;38621;52.830;6.914;2024-01-30T14:11:03;10.10;99.90
52725;DHT22;38621;52.830;6.914;2024-01-30T14:13:29;10.00;99.90
52725;DHT22;38621;52.830;6.914;2024-01-30T14:15:56;10.00;99.90
52725;DHT22;38621;52.830;6.914;2024-01-30T14:18:22;9.90;99.90
52725;DHT22;38621;52.830;6.914;2024-01-30T14:20:48;9.80;99.90
52725;DHT22;38621;52.830;6.914;2024-01-30T14:23:14;9.80;99.90
52725;DHT22;38621;52.830;6.914;2024-01-30T14:25:40;9.70;99.90
52725;DHT22;38621;52.830;6.914;2024-01-30T14:28:06;9.70;99.90
52725;DHT22;38621;52.830;6.914;2024-01-30T14:30:31;9.70;99.90
52725;DHT22;38621;52.830;6.914;2024-01-30T14:32:57;9.70;99.90
52725;DHT22;38621;52.830;6.914;2024-01-30T14:35:23;9.70;99.90
52725;DHT22;38621;52.830;6.914;2024-01-30T14:37:49;9.60;99.90
52725;DHT22;38621;52.830;6.914;2024-01-30T14:40:14;9.50;99.90
52725;DHT22;38621;52.830;6.914;2024-01-30T14:42:40;9.50;99.90
52725;DHT22;38621;52.830;6.914;2024-01-30T14:45:06;9.50;99.90
52725;DHT22;38621;52.830;6.914;2024-01-30T14:47:33;9.50;99.90
52725;DHT22;38621;52.830;6.914;2024-01-30T14:49:59;9.50;99.90
52725;DHT22;38621;52.830;6.914;2024-01-30T14:52:24;9.50;99.90
52725;DHT22;38621;52.830;6.914;2024-01-30T14:54:50;9.50;99.90
52725;DHT22;38621;52.830;6.914;2024-01-30T14:57:16;9.50;99.90
52725;DHT22;38621;52.830;6.914;2024-01-30T14:59:42;9.50;99.90
52725;DHT22;38621;52.830;6.914;2024-01-30T15:02:08;9.50;99.90
52725;DHT22;38621;52.830;6.914;2024-01-30T15:04:33;9.50;99.90
52725;DHT22;38621;52.830;6.914;2024-01-30T15:06:59;9.50;99.90
52725;DHT22;38621;52.830;6.914;2024-01-30T15:09:25;9.50;99.90
52725;DHT22;38621;52.830;6.914;2024-01-30T15:11:52;9.50;99.90
52725;DHT22;38621;52.830;6.914;2024-01-30T15:14:18;9.40;99.90
52725;DHT22;38621;52.830;6.914;2024-01-30T15:16:44;9.40;99.90
52725;DHT22;38621;52.830;6.914;2024-01-30T15:19:10;9.40;99.90
52725;DHT22;38621;52.830;6.914;2024-01-30T15:21:36;9.30;99.90
52725;DHT22;38621;52.830;6.914;2024-01-30T15:24:02;9.40;99.90
52725;DHT22;38621;52.830;6.914;2024-01-30T15:26:28;9.30;99.90
52725;DHT22;38621;52.830;6.914;2024-01-30T15:28:54;9.20;99.90
52725;DHT22;38621;52.830;6.914;2024-01-30T15:31:20;9.20;99.90
52725;DHT22;38621;52.830;6.914;2024-01-30T15:33:47;9.10;99.90
52725;DHT22;38621;52.830;6.914;2024-01-30T15:36:12;9.00;99.90
52725;DHT22;38621;52.830;6.914;2024-01-30T15:38:41;9.10;99.90